• Join FlightAware (Why Join?)
  • Login
  • US Flag 
04:40PM EDT


 

Airport Tracker/Info


-or-


 

Live Flight TrackerFlight Track Log ✈ EJM826 ✈ 31-Jul-2013 ✈ KBUR - KSNA

Flight Track Log - Related Links

Times and Time Zones

All times are in EDT time to prevent confusion due to time zone crossing. See the EJM826 flight status page for this flight to view local times or setup timezone preferences in your user account.

Time Position Orientation Groundspeed Altitude Reporting Facility
EDT Latitude Longitude Course Direction KTS MPH feet Rate Location/Type
11:05AM 33.9159 -118.0917 142° Southeast  Level Estimated
11:06AM 33.8684 -118.0474 142° Southeast  Level Estimated
11:07AM 33.8209 -118.0031 142° Southeast  Level Estimated
11:08AM 33.7733 -117.9588 142° Southeast  Level Estimated
11:09AM 33.7257 -117.9147 142° Southeast  Level Estimated
11:10AM 33.6782 -117.8705 142° Southeast  Level Estimated
11:10AM 33.8061 -118.2083 209° Southwest 254 292 4,900  Level Los Angeles Center
11:11AM 33.6757 -117.8682 142° Southeast  Level Estimated
11:11AM 33.7717 -118.1542 127° Southeast 253 291 4,000  Level Los Angeles Center
11:12AM 33.6757 -117.8682 209° Southwest  Level Estimated
11:12AM 33.7667 -118.0833 95° East 264 304 4,000  Level Southern California TRACON
11:13AM 33.6757 -117.8682 209° Southwest  Level Estimated
11:13AM 33.8000 -118.0167 59° Northeast 246 283 4,000  Level Southern California TRACON
11:14AM 33.6757 -117.8682 209° Southwest  Level Estimated
11:14AM 33.8000 -117.9333 90° East 235 270 4,100  Level Southern California TRACON
11:15AM 33.6757 -117.8682 209° Southwest  Level Estimated
11:15AM 33.8333 -117.8667 59° Northeast 243 280 4,100  Level Southern California TRACON
11:16AM 33.6757 -117.8682 209° Southwest  Level Estimated
11:16AM 33.8667 -117.8000 59° Northeast 238 274 3,600  Level Southern California TRACON
11:17AM 33.8333 -117.7667 140° Southeast 224 258 3,000 -600 Descending Southern California TRACON
11:18AM 33.7833 -117.8000 209° Southwest 171 197 2,500 -660 Descending Southern California TRACON
11:19AM 33.7500 -117.8167 203° Southwest 154 177 1,700 -840 Descending Southern California TRACON
11:20AM 33.7167 -117.8500 220° Southwest 151 174 900 -600 Descending Southern California TRACON
11:22AM 33.6536 -117.8806 202° Southwest 151 174 100 -480 Descending Los Angeles Center